sensor_id;sensor_type;location;lat;lon;timestamp;P1;durP1;ratioP1;P2;durP2;ratioP2
36001;SDS011;22070;50.922;5.430;2023-03-20T00:01:27;11.38;;;6.30;;
36001;SDS011;22070;50.922;5.430;2023-03-20T00:03:52;12.20;;;6.88;;
36001;SDS011;22070;50.922;5.430;2023-03-20T00:06:19;11.17;;;6.50;;
36001;SDS011;22070;50.922;5.430;2023-03-20T00:08:47;10.98;;;5.97;;
36001;SDS011;22070;50.922;5.430;2023-03-20T00:14:10;6.30;;;4.22;;
36001;SDS011;22070;50.922;5.430;2023-03-20T00:16:39;10.48;;;4.30;;
36001;SDS011;22070;50.922;5.430;2023-03-20T00:19:10;7.00;;;4.03;;
36001;SDS011;22070;50.922;5.430;2023-03-20T00:21:39;5.78;;;4.03;;
36001;SDS011;22070;50.922;5.430;2023-03-20T00:24:05;5.68;;;3.45;;
36001;SDS011;22070;50.922;5.430;2023-03-20T00:26:32;7.63;;;4.13;;
36001;SDS011;22070;50.922;5.430;2023-03-20T00:28:59;6.85;;;4.35;;
36001;SDS011;22070;50.922;5.430;2023-03-20T00:31:32;7.40;;;4.43;;
36001;SDS011;22070;50.922;5.430;2023-03-20T00:34:00;9.32;;;4.60;;
36001;SDS011;22070;50.922;5.430;2023-03-20T00:36:29;9.52;;;4.93;;
36001;SDS011;22070;50.922;5.430;2023-03-20T00:38:55;8.27;;;4.88;;
36001;SDS011;22070;50.922;5.430;2023-03-20T00:44:40;9.05;;;5.25;;
36001;SDS011;22070;50.922;5.430;2023-03-20T00:46:42;11.38;;;4.88;;
36001;SDS011;22070;50.922;5.430;2023-03-20T00:49:11;12.77;;;4.93;;
36001;SDS011;22070;50.922;5.430;2023-03-20T00:51:36;9.00;;;4.95;;
36001;SDS011;22070;50.922;5.430;2023-03-20T00:56:39;7.15;;;4.78;;
36001;SDS011;22070;50.922;5.430;2023-03-20T00:59:13;10.70;;;5.18;;
36001;SDS011;22070;50.922;5.430;2023-03-20T01:01:45;7.97;;;4.70;;
36001;SDS011;22070;50.922;5.430;2023-03-20T01:04:12;12.25;;;5.75;;
36001;SDS011;22070;50.922;5.430;2023-03-20T01:06:40;7.90;;;5.13;;
36001;SDS011;22070;50.922;5.430;2023-03-20T01:09:06;8.87;;;5.60;;
36001;SDS011;22070;50.922;5.430;2023-03-20T01:11:32;13.52;;;6.45;;
36001;SDS011;22070;50.922;5.430;2023-03-20T01:13:59;11.23;;;6.90;;
36001;SDS011;22070;50.922;5.430;2023-03-20T01:16:25;13.03;;;7.60;;
36001;SDS011;22070;50.922;5.430;2023-03-20T01:18:51;18.48;;;8.48;;
36001;SDS011;22070;50.922;5.430;2023-03-20T01:21:17;17.85;;;8.77;;
36001;SDS011;22070;50.922;5.430;2023-03-20T01:23:43;19.83;;;9.13;;
36001;SDS011;22070;50.922;5.430;2023-03-20T01:26:31;19.02;;;9.98;;
36001;SDS011;22070;50.922;5.430;2023-03-20T01:29:03;17.13;;;9.60;;
36001;SDS011;22070;50.922;5.430;2023-03-20T01:31:33;17.05;;;9.68;;
36001;SDS011;22070;50.922;5.430;2023-03-20T01:33:59;17.95;;;9.07;;
36001;SDS011;22070;50.922;5.430;2023-03-20T01:36:25;18.08;;;8.75;;
36001;SDS011;22070;50.922;5.430;2023-03-20T01:38:54;18.58;;;8.77;;
36001;SDS011;22070;50.922;5.430;2023-03-20T01:41:23;17.90;;;9.15;;
36001;SDS011;22070;50.922;5.430;2023-03-20T01:43:50;15.40;;;8.55;;
36001;SDS011;22070;50.922;5.430;2023-03-20T01:46:22;16.05;;;8.52;;
36001;SDS011;22070;50.922;5.430;2023-03-20T01:51:25;14.00;;;7.85;;
36001;SDS011;22070;50.922;5.430;2023-03-20T01:53:57;16.45;;;8.60;;
36001;SDS011;22070;50.922;5.430;2023-03-20T01:56:31;15.85;;;7.60;;
36001;SDS011;22070;50.922;5.430;2023-03-20T01:59:03;14.63;;;7.63;;
36001;SDS011;22070;50.922;5.430;2023-03-20T02:01:37;15.77;;;7.57;;
36001;SDS011;22070;50.922;5.430;2023-03-20T02:06:30;18.40;;;7.25;;
36001;SDS011;22070;50.922;5.430;2023-03-20T02:08:57;14.48;;;7.70;;
36001;SDS011;22070;50.922;5.430;2023-03-20T02:11:23;13.97;;;7.50;;
36001;SDS011;22070;50.922;5.430;2023-03-20T02:13:53;14.63;;;7.07;;
36001;SDS011;22070;50.922;5.430;2023-03-20T02:16:22;14.13;;;6.70;;
36001;SDS011;22070;50.922;5.430;2023-03-20T02:18:48;15.20;;;6.85;;
36001;SDS011;22070;50.922;5.430;2023-03-20T02:27:30;12.48;;;6.82;;
36001;SDS011;22070;50.922;5.430;2023-03-20T02:33:00;15.05;;;7.05;;
36001;SDS011;22070;50.922;5.430;2023-03-20T02:38:32;12.43;;;6.40;;
36001;SDS011;22070;50.922;5.430;2023-03-20T02:44:05;14.13;;;7.35;;
36001;SDS011;22070;50.922;5.430;2023-03-20T02:52:09;14.52;;;6.50;;
36001;SDS011;22070;50.922;5.430;2023-03-20T03:00:27;9.85;;;5.80;;
36001;SDS011;22070;50.922;5.430;2023-03-20T03:05:36;11.05;;;6.53;;
36001;SDS011;22070;50.922;5.430;2023-03-20T03:08:07;13.52;;;6.80;;
36001;SDS011;22070;50.922;5.430;2023-03-20T03:10:39;11.60;;;6.63;;
36001;SDS011;22070;50.922;5.430;2023-03-20T03:13:11;13.18;;;6.38;;
36001;SDS011;22070;50.922;5.430;2023-03-20T03:15:42;13.98;;;6.60;;
36001;SDS011;22070;50.922;5.430;2023-03-20T03:18:13;16.92;;;6.72;;
36001;SDS011;22070;50.922;5.430;2023-03-20T03:20:49;13.07;;;6.72;;
36001;SDS011;22070;50.922;5.430;2023-03-20T03:23:25;15.13;;;6.30;;
36001;SDS011;22070;50.922;5.430;2023-03-20T03:26:05;11.07;;;5.95;;
36001;SDS011;22070;50.922;5.430;2023-03-20T03:28:35;9.20;;;5.90;;
36001;SDS011;22070;50.922;5.430;2023-03-20T03:31:06;12.18;;;6.03;;
36001;SDS011;22070;50.922;5.430;2023-03-20T03:33:33;12.48;;;6.43;;
36001;SDS011;22070;50.922;5.430;2023-03-20T03:41:27;15.35;;;6.20;;
36001;SDS011;22070;50.922;5.430;2023-03-20T03:46:59;12.30;;;6.22;;
36001;SDS011;22070;50.922;5.430;2023-03-20T03:49:38;14.52;;;6.43;;
36001;SDS011;22070;50.922;5.430;2023-03-20T03:52:09;13.82;;;6.30;;
36001;SDS011;22070;50.922;5.430;2023-03-20T03:54:44;14.50;;;6.75;;
36001;SDS011;22070;50.922;5.430;2023-03-20T03:57:18;15.35;;;6.38;;
36001;SDS011;22070;50.922;5.430;2023-03-20T03:59:48;13.45;;;6.85;;
36001;SDS011;22070;50.922;5.430;2023-03-20T04:02:16;12.57;;;6.57;;
36001;SDS011;22070;50.922;5.430;2023-03-20T04:04:44;15.68;;;7.45;;
36001;SDS011;22070;50.922;5.430;2023-03-20T04:07:13;14.48;;;7.18;;
36001;SDS011;22070;50.922;5.430;2023-03-20T04:09:39;16.92;;;7.30;;
36001;SDS011;22070;50.922;5.430;2023-03-20T04:12:05;13.77;;;7.18;;
36001;SDS011;22070;50.922;5.430;2023-03-20T04:14:42;11.93;;;6.30;;
36001;SDS011;22070;50.922;5.430;2023-03-20T04:17:08;12.95;;;7.45;;
36001;SDS011;22070;50.922;5.430;2023-03-20T04:19:33;13.77;;;5.25;;
36001;SDS011;22070;50.922;5.430;2023-03-20T04:21:59;12.90;;;6.83;;
36001;SDS011;22070;50.922;5.430;2023-03-20T04:24:25;13.07;;;7.40;;
36001;SDS011;22070;50.922;5.430;2023-03-20T04:26:50;7.80;;;4.88;;
36001;SDS011;22070;50.922;5.430;2023-03-20T04:29:16;13.95;;;6.75;;
36001;SDS011;22070;50.922;5.430;2023-03-20T04:31:41;14.85;;;7.35;;
36001;SDS011;22070;50.922;5.430;2023-03-20T04:34:07;15.90;;;7.15;;
36001;SDS011;22070;50.922;5.430;2023-03-20T04:36:33;16.17;;;7.43;;
36001;SDS011;22070;50.922;5.430;2023-03-20T04:38:58;15.18;;;7.53;;
36001;SDS011;22070;50.922;5.430;2023-03-20T04:41:24;17.17;;;8.10;;
36001;SDS011;22070;50.922;5.430;2023-03-20T04:43:50;14.17;;;7.87;;
36001;SDS011;22070;50.922;5.430;2023-03-20T04:46:16;18.17;;;8.40;;
36001;SDS011;22070;50.922;5.430;2023-03-20T04:48:41;17.85;;;8.95;;
36001;SDS011;22070;50.922;5.430;2023-03-20T04:51:07;13.77;;;8.02;;
36001;SDS011;22070;50.922;5.430;2023-03-20T04:53:32;18.00;;;8.57;;
36001;SDS011;22070;50.922;5.430;2023-03-20T04:55:58;19.92;;;9.30;;
36001;SDS011;22070;50.922;5.430;2023-03-20T04:58:24;19.98;;;9.70;;
36001;SDS011;22070;50.922;5.430;2023-03-20T05:00:49;22.58;;;9.75;;
36001;SDS011;22070;50.922;5.430;2023-03-20T05:03:15;23.15;;;9.45;;
36001;SDS011;22070;50.922;5.430;2023-03-20T05:05:41;21.97;;;9.97;;
36001;SDS011;22070;50.922;5.430;2023-03-20T05:08:07;20.20;;;10.18;;
36001;SDS011;22070;50.922;5.430;2023-03-20T05:10:33;22.98;;;10.25;;
36001;SDS011;22070;50.922;5.430;2023-03-20T05:12:58;24.77;;;10.68;;
36001;SDS011;22070;50.922;5.430;2023-03-20T05:15:24;26.40;;;11.27;;
36001;SDS011;22070;50.922;5.430;2023-03-20T05:17:50;25.38;;;12.02;;
36001;SDS011;22070;50.922;5.430;2023-03-20T05:20:16;19.00;;;10.95;;
36001;SDS011;22070;50.922;5.430;2023-03-20T05:22:41;21.45;;;11.25;;
36001;SDS011;22070;50.922;5.430;2023-03-20T05:25:07;23.27;;;11.17;;
36001;SDS011;22070;50.922;5.430;2023-03-20T05:27:33;21.35;;;10.57;;
36001;SDS011;22070;50.922;5.430;2023-03-20T05:29:58;24.85;;;11.82;;
36001;SDS011;22070;50.922;5.430;2023-03-20T05:32:25;24.97;;;11.00;;
36001;SDS011;22070;50.922;5.430;2023-03-20T05:34:51;28.55;;;11.13;;
36001;SDS011;22070;50.922;5.430;2023-03-20T05:37:17;24.98;;;11.35;;
36001;SDS011;22070;50.922;5.430;2023-03-20T05:39:42;28.13;;;12.27;;
36001;SDS011;22070;50.922;5.430;2023-03-20T05:42:08;22.03;;;9.60;;
36001;SDS011;22070;50.922;5.430;2023-03-20T05:44:33;25.92;;;11.48;;
36001;SDS011;22070;50.922;5.430;2023-03-20T05:46:59;26.27;;;12.02;;
36001;SDS011;22070;50.922;5.430;2023-03-20T05:49:25;25.02;;;11.05;;
36001;SDS011;22070;50.922;5.430;2023-03-20T05:51:50;25.60;;;11.50;;
36001;SDS011;22070;50.922;5.430;2023-03-20T05:54:16;27.17;;;10.77;;
36001;SDS011;22070;50.922;5.430;2023-03-20T05:56:42;26.92;;;10.90;;
36001;SDS011;22070;50.922;5.430;2023-03-20T05:59:07;29.07;;;11.13;;
36001;SDS011;22070;50.922;5.430;2023-03-20T06:01:33;25.25;;;10.82;;
36001;SDS011;22070;50.922;5.430;2023-03-20T06:03:59;26.35;;;11.30;;
36001;SDS011;22070;50.922;5.430;2023-03-20T06:06:25;30.08;;;10.80;;
36001;SDS011;22070;50.922;5.430;2023-03-20T06:08:50;27.90;;;11.20;;
36001;SDS011;22070;50.922;5.430;2023-03-20T06:11:16;26.00;;;10.90;;
36001;SDS011;22070;50.922;5.430;2023-03-20T06:13:42;27.27;;;10.95;;
36001;SDS011;22070;50.922;5.430;2023-03-20T06:16:07;29.47;;;11.13;;
36001;SDS011;22070;50.922;5.430;2023-03-20T06:18:33;29.95;;;11.15;;
36001;SDS011;22070;50.922;5.430;2023-03-20T06:20:59;27.10;;;10.10;;
36001;SDS011;22070;50.922;5.430;2023-03-20T06:23:26;26.13;;;10.80;;
36001;SDS011;22070;50.922;5.430;2023-03-20T06:25:51;21.23;;;9.93;;
36001;SDS011;22070;50.922;5.430;2023-03-20T06:28:17;23.80;;;10.63;;
36001;SDS011;22070;50.922;5.430;2023-03-20T06:30:43;28.58;;;11.10;;
36001;SDS011;22070;50.922;5.430;2023-03-20T06:33:09;32.78;;;11.32;;
36001;SDS011;22070;50.922;5.430;2023-03-20T06:35:34;25.35;;;10.38;;
36001;SDS011;22070;50.922;5.430;2023-03-20T06:38:00;24.45;;;10.07;;
36001;SDS011;22070;50.922;5.430;2023-03-20T06:40:26;27.50;;;10.25;;
36001;SDS011;22070;50.922;5.430;2023-03-20T06:42:52;25.55;;;10.20;;
36001;SDS011;22070;50.922;5.430;2023-03-20T06:45:19;25.08;;;9.82;;
36001;SDS011;22070;50.922;5.430;2023-03-20T06:47:45;27.98;;;10.25;;
36001;SDS011;22070;50.922;5.430;2023-03-20T06:50:11;23.23;;;9.52;;
36001;SDS011;22070;50.922;5.430;2023-03-20T06:52:37;24.42;;;9.80;;
36001;SDS011;22070;50.922;5.430;2023-03-20T06:55:04;25.17;;;10.07;;
36001;SDS011;22070;50.922;5.430;2023-03-20T06:57:30;24.90;;;9.90;;
36001;SDS011;22070;50.922;5.430;2023-03-20T07:02:23;20.97;;;9.10;;
36001;SDS011;22070;50.922;5.430;2023-03-20T07:04:49;22.25;;;8.65;;
36001;SDS011;22070;50.922;5.430;2023-03-20T07:07:15;20.07;;;8.13;;
36001;SDS011;22070;50.922;5.430;2023-03-20T07:09:41;24.73;;;9.05;;
36001;SDS011;22070;50.922;5.430;2023-03-20T07:12:10;23.20;;;9.33;;
36001;SDS011;22070;50.922;5.430;2023-03-20T07:14:38;24.13;;;8.73;;
36001;SDS011;22070;50.922;5.430;2023-03-20T07:17:06;25.23;;;8.80;;
36001;SDS011;22070;50.922;5.430;2023-03-20T07:19:33;22.75;;;8.15;;
36001;SDS011;22070;50.922;5.430;2023-03-20T07:21:59;25.92;;;8.07;;
36001;SDS011;22070;50.922;5.430;2023-03-20T07:24:27;19.23;;;7.72;;
36001;SDS011;22070;50.922;5.430;2023-03-20T07:26:53;20.10;;;8.02;;
36001;SDS011;22070;50.922;5.430;2023-03-20T07:29:19;18.90;;;6.93;;
36001;SDS011;22070;50.922;5.430;2023-03-20T07:31:44;19.90;;;7.68;;
36001;SDS011;22070;50.922;5.430;2023-03-20T07:34:10;16.80;;;7.07;;
36001;SDS011;22070;50.922;5.430;2023-03-20T07:36:36;16.50;;;6.78;;
36001;SDS011;22070;50.922;5.430;2023-03-20T07:39:02;15.73;;;6.43;;
36001;SDS011;22070;50.922;5.430;2023-03-20T07:41:28;18.80;;;6.25;;
36001;SDS011;22070;50.922;5.430;2023-03-20T07:43:54;14.43;;;5.50;;
36001;SDS011;22070;50.922;5.430;2023-03-20T07:46:20;22.60;;;6.22;;
36001;SDS011;22070;50.922;5.430;2023-03-20T07:48:46;11.85;;;5.13;;
36001;SDS011;22070;50.922;5.430;2023-03-20T07:51:11;14.60;;;5.20;;
36001;SDS011;22070;50.922;5.430;2023-03-20T07:53:37;12.93;;;5.13;;
36001;SDS011;22070;50.922;5.430;2023-03-20T07:56:03;17.43;;;4.97;;
36001;SDS011;22070;50.922;5.430;2023-03-20T07:58:29;10.13;;;5.10;;
36001;SDS011;22070;50.922;5.430;2023-03-20T08:00:55;16.33;;;5.22;;
36001;SDS011;22070;50.922;5.430;2023-03-20T08:03:22;17.33;;;4.57;;
36001;SDS011;22070;50.922;5.430;2023-03-20T08:05:48;12.80;;;4.70;;
36001;SDS011;22070;50.922;5.430;2023-03-20T08:08:14;15.77;;;3.90;;
36001;SDS011;22070;50.922;5.430;2023-03-20T08:10:39;11.80;;;3.97;;
36001;SDS011;22070;50.922;5.430;2023-03-20T08:13:05;12.10;;;3.67;;
36001;SDS011;22070;50.922;5.430;2023-03-20T08:15:31;9.53;;;3.97;;
36001;SDS011;22070;50.922;5.430;2023-03-20T08:17:56;10.07;;;3.92;;
36001;SDS011;22070;50.922;5.430;2023-03-20T08:20:22;10.55;;;3.35;;
36001;SDS011;22070;50.922;5.430;2023-03-20T08:22:48;13.93;;;3.78;;
36001;SDS011;22070;50.922;5.430;2023-03-20T08:25:14;7.53;;;2.93;;
36001;SDS011;22070;50.922;5.430;2023-03-20T08:27:40;10.55;;;2.97;;
36001;SDS011;22070;50.922;5.430;2023-03-20T08:30:06;10.75;;;3.88;;
36001;SDS011;22070;50.922;5.430;2023-03-20T08:32:33;7.10;;;3.05;;
36001;SDS011;22070;50.922;5.430;2023-03-20T08:34:59;7.05;;;2.65;;
36001;SDS011;22070;50.922;5.430;2023-03-20T08:37:24;11.63;;;3.80;;
36001;SDS011;22070;50.922;5.430;2023-03-20T08:39:50;10.13;;;3.25;;
36001;SDS011;22070;50.922;5.430;2023-03-20T08:42:16;8.52;;;3.22;;
36001;SDS011;22070;50.922;5.430;2023-03-20T08:44:41;10.07;;;4.30;;
36001;SDS011;22070;50.922;5.430;2023-03-20T08:47:07;12.52;;;3.65;;
36001;SDS011;22070;50.922;5.430;2023-03-20T08:49:35;12.63;;;3.30;;
36001;SDS011;22070;50.922;5.430;2023-03-20T08:52:00;16.80;;;3.60;;
36001;SDS011;22070;50.922;5.430;2023-03-20T08:54:27;13.80;;;4.15;;
36001;SDS011;22070;50.922;5.430;2023-03-20T08:56:53;8.83;;;3.53;;
36001;SDS011;22070;50.922;5.430;2023-03-20T08:59:18;10.30;;;3.33;;
36001;SDS011;22070;50.922;5.430;2023-03-20T09:01:45;10.60;;;3.67;;
36001;SDS011;22070;50.922;5.430;2023-03-20T09:04:12;12.80;;;3.90;;
36001;SDS011;22070;50.922;5.430;2023-03-20T09:06:38;11.85;;;3.95;;
36001;SDS011;22070;50.922;5.430;2023-03-20T09:09:05;12.88;;;3.80;;
36001;SDS011;22070;50.922;5.430;2023-03-20T09:11:32;10.27;;;3.38;;
36001;SDS011;22070;50.922;5.430;2023-03-20T09:13:58;10.23;;;3.30;;
36001;SDS011;22070;50.922;5.430;2023-03-20T09:16:24;13.85;;;3.35;;
36001;SDS011;22070;50.922;5.430;2023-03-20T09:18:50;11.47;;;3.10;;
36001;SDS011;22070;50.922;5.430;2023-03-20T09:21:17;5.78;;;2.55;;
36001;SDS011;22070;50.922;5.430;2023-03-20T09:23:42;10.50;;;3.63;;
36001;SDS011;22070;50.922;5.430;2023-03-20T09:26:08;9.65;;;3.50;;
36001;SDS011;22070;50.922;5.430;2023-03-20T09:28:34;12.13;;;3.45;;
36001;SDS011;22070;50.922;5.430;2023-03-20T09:31:00;9.05;;;3.05;;
36001;SDS011;22070;50.922;5.430;2023-03-20T09:33:26;11.63;;;3.33;;
36001;SDS011;22070;50.922;5.430;2023-03-20T09:35:52;16.15;;;3.55;;
36001;SDS011;22070;50.922;5.430;2023-03-20T09:38:18;11.93;;;3.10;;
36001;SDS011;22070;50.922;5.430;2023-03-20T09:49:28;15.30;;;3.90;;
36001;SDS011;22070;50.922;5.430;2023-03-20T09:55:15;9.10;;;3.47;;
36001;SDS011;22070;50.922;5.430;2023-03-20T09:57:46;10.88;;;3.72;;
36001;SDS011;22070;50.922;5.430;2023-03-20T10:00:24;11.90;;;4.22;;
36001;SDS011;22070;50.922;5.430;2023-03-20T10:08:12;11.65;;;3.78;;
36001;SDS011;22070;50.922;5.430;2023-03-20T10:13:29;10.00;;;3.78;;
36001;SDS011;22070;50.922;5.430;2023-03-20T10:16:05;10.77;;;3.75;;
36001;SDS011;22070;50.922;5.430;2023-03-20T10:18:36;10.68;;;3.67;;
36001;SDS011;22070;50.922;5.430;2023-03-20T10:21:17;11.82;;;3.92;;
36001;SDS011;22070;50.922;5.430;2023-03-20T10:26:27;12.80;;;3.75;;
36001;SDS011;22070;50.922;5.430;2023-03-20T10:28:58;10.88;;;3.55;;
36001;SDS011;22070;50.922;5.430;2023-03-20T10:31:44;12.63;;;4.55;;
36001;SDS011;22070;50.922;5.430;2023-03-20T10:34:30;17.30;;;3.67;;
36001;SDS011;22070;50.922;5.430;2023-03-20T10:37:22;12.15;;;4.00;;
36001;SDS011;22070;50.922;5.430;2023-03-20T10:43:17;15.23;;;4.15;;
36001;SDS011;22070;50.922;5.430;2023-03-20T10:46:03;9.18;;;3.92;;
36001;SDS011;22070;50.922;5.430;2023-03-20T10:51:13;12.02;;;4.07;;
36001;SDS011;22070;50.922;5.430;2023-03-20T10:56:19;10.30;;;4.00;;
36001;SDS011;22070;50.922;5.430;2023-03-20T11:01:52;9.52;;;3.60;;
36001;SDS011;22070;50.922;5.430;2023-03-20T11:04:18;8.73;;;3.15;;
36001;SDS011;22070;50.922;5.430;2023-03-20T11:06:51;10.23;;;3.42;;
36001;SDS011;22070;50.922;5.430;2023-03-20T11:09:25;16.55;;;3.80;;
36001;SDS011;22070;50.922;5.430;2023-03-20T11:11:55;9.02;;;2.90;;
36001;SDS011;22070;50.922;5.430;2023-03-20T11:14:23;12.82;;;3.60;;
36001;SDS011;22070;50.922;5.430;2023-03-20T11:16:54;12.80;;;3.42;;
36001;SDS011;22070;50.922;5.430;2023-03-20T11:19:24;11.48;;;3.40;;
36001;SDS011;22070;50.922;5.430;2023-03-20T11:21:54;12.82;;;3.33;;
36001;SDS011;22070;50.922;5.430;2023-03-20T11:24:25;10.10;;;3.45;;
36001;SDS011;22070;50.922;5.430;2023-03-20T11:27:32;11.68;;;3.20;;
36001;SDS011;22070;50.922;5.430;2023-03-20T11:30:01;15.02;;;2.97;;
36001;SDS011;22070;50.922;5.430;2023-03-20T11:37:55;17.77;;;3.22;;
36001;SDS011;22070;50.922;5.430;2023-03-20T11:40:37;13.50;;;3.20;;
36001;SDS011;22070;50.922;5.430;2023-03-20T11:43:08;9.50;;;2.80;;
36001;SDS011;22070;50.922;5.430;2023-03-20T11:45:42;10.90;;;3.20;;
36001;SDS011;22070;50.922;5.430;2023-03-20T11:48:21;15.07;;;3.17;;
36001;SDS011;22070;50.922;5.430;2023-03-20T11:50:50;9.10;;;2.92;;
36001;SDS011;22070;50.922;5.430;2023-03-20T11:56:07;11.75;;;2.70;;
36001;SDS011;22070;50.922;5.430;2023-03-20T11:58:46;8.05;;;2.35;;
36001;SDS011;22070;50.922;5.430;2023-03-20T12:01:38;14.95;;;2.75;;
36001;SDS011;22070;50.922;5.430;2023-03-20T12:06:44;8.10;;;2.55;;
36001;SDS011;22070;50.922;5.430;2023-03-20T12:09:28;12.77;;;2.88;;
36001;SDS011;22070;50.922;5.430;2023-03-20T12:15:25;17.10;;;3.17;;
36001;SDS011;22070;50.922;5.430;2023-03-20T12:23:42;8.23;;;2.55;;
36001;SDS011;22070;50.922;5.430;2023-03-20T12:26:49;8.10;;;2.65;;
36001;SDS011;22070;50.922;5.430;2023-03-20T12:32:01;10.35;;;2.92;;
36001;SDS011;22070;50.922;5.430;2023-03-20T12:34:49;9.82;;;2.85;;
36001;SDS011;22070;50.922;5.430;2023-03-20T12:37:19;13.13;;;2.80;;
36001;SDS011;22070;50.922;5.430;2023-03-20T12:39:49;12.38;;;2.97;;
36001;SDS011;22070;50.922;5.430;2023-03-20T13:03:40;13.43;;;2.45;;
36001;SDS011;22070;50.922;5.430;2023-03-20T13:20:29;8.35;;;2.15;;
36001;SDS011;22070;50.922;5.430;2023-03-20T13:30:53;8.77;;;2.72;;
36001;SDS011;22070;50.922;5.430;2023-03-20T13:38:51;8.32;;;2.47;;
36001;SDS011;22070;50.922;5.430;2023-03-20T13:41:24;6.82;;;2.25;;
36001;SDS011;22070;50.922;5.430;2023-03-20T13:43:58;11.43;;;2.25;;
36001;SDS011;22070;50.922;5.430;2023-03-20T13:46:49;9.07;;;2.72;;
36001;SDS011;22070;50.922;5.430;2023-03-20T13:52:05;11.38;;;2.38;;
36001;SDS011;22070;50.922;5.430;2023-03-20T14:00:09;7.93;;;2.53;;
36001;SDS011;22070;50.922;5.430;2023-03-20T14:02:49;12.15;;;2.55;;
36001;SDS011;22070;50.922;5.430;2023-03-20T14:05:22;9.95;;;2.50;;
36001;SDS011;22070;50.922;5.430;2023-03-20T14:07:54;8.68;;;2.67;;
36001;SDS011;22070;50.922;5.430;2023-03-20T14:12:53;5.18;;;2.08;;
36001;SDS011;22070;50.922;5.430;2023-03-20T14:15:33;5.53;;;2.42;;
36001;SDS011;22070;50.922;5.430;2023-03-20T14:18:13;8.50;;;2.63;;
36001;SDS011;22070;50.922;5.430;2023-03-20T14:20:41;8.65;;;2.60;;
36001;SDS011;22070;50.922;5.430;2023-03-20T14:23:17;12.65;;;3.20;;
36001;SDS011;22070;50.922;5.430;2023-03-20T14:25:45;9.25;;;2.53;;
36001;SDS011;22070;50.922;5.430;2023-03-20T14:30:39;11.30;;;2.75;;
36001;SDS011;22070;50.922;5.430;2023-03-20T14:38:30;7.38;;;2.40;;
36001;SDS011;22070;50.922;5.430;2023-03-20T14:41:07;10.20;;;2.72;;
36001;SDS011;22070;50.922;5.430;2023-03-20T14:49:23;10.82;;;2.38;;
36001;SDS011;22070;50.922;5.430;2023-03-20T14:52:17;8.05;;;2.72;;
36001;SDS011;22070;50.922;5.430;2023-03-20T14:54:54;8.48;;;2.65;;
36001;SDS011;22070;50.922;5.430;2023-03-20T14:57:32;7.13;;;2.55;;
36001;SDS011;22070;50.922;5.430;2023-03-20T14:59:58;16.17;;;2.63;;
36001;SDS011;22070;50.922;5.430;2023-03-20T15:02:26;10.98;;;2.88;;
36001;SDS011;22070;50.922;5.430;2023-03-20T15:04:55;9.48;;;2.60;;
36001;SDS011;22070;50.922;5.430;2023-03-20T15:07:22;11.90;;;3.88;;
36001;SDS011;22070;50.922;5.430;2023-03-20T15:09:52;13.02;;;2.95;;
36001;SDS011;22070;50.922;5.430;2023-03-20T15:12:22;9.70;;;2.60;;
36001;SDS011;22070;50.922;5.430;2023-03-20T15:14:55;9.30;;;3.42;;
36001;SDS011;22070;50.922;5.430;2023-03-20T15:19:58;10.85;;;2.83;;
36001;SDS011;22070;50.922;5.430;2023-03-20T15:22:27;7.97;;;2.30;;
36001;SDS011;22070;50.922;5.430;2023-03-20T15:24:53;14.38;;;2.78;;
36001;SDS011;22070;50.922;5.430;2023-03-20T15:27:21;10.57;;;3.25;;
36001;SDS011;22070;50.922;5.430;2023-03-20T15:29:51;10.13;;;2.80;;
36001;SDS011;22070;50.922;5.430;2023-03-20T15:32:18;9.73;;;2.92;;
36001;SDS011;22070;50.922;5.430;2023-03-20T15:34:45;9.95;;;2.70;;
36001;SDS011;22070;50.922;5.430;2023-03-20T15:37:16;10.05;;;2.80;;
36001;SDS011;22070;50.922;5.430;2023-03-20T15:39:46;9.02;;;2.50;;
36001;SDS011;22070;50.922;5.430;2023-03-20T15:42:14;10.30;;;3.25;;
36001;SDS011;22070;50.922;5.430;2023-03-20T15:44:43;9.18;;;2.75;;
36001;SDS011;22070;50.922;5.430;2023-03-20T15:47:15;9.27;;;2.90;;
36001;SDS011;22070;50.922;5.430;2023-03-20T15:49:55;9.50;;;3.13;;
36001;SDS011;22070;50.922;5.430;2023-03-20T15:52:27;10.77;;;3.40;;
36001;SDS011;22070;50.922;5.430;2023-03-20T15:55:17;8.77;;;3.05;;
36001;SDS011;22070;50.922;5.430;2023-03-20T15:57:44;11.15;;;3.22;;
36001;SDS011;22070;50.922;5.430;2023-03-20T16:02:56;8.40;;;2.63;;
36001;SDS011;22070;50.922;5.430;2023-03-20T16:05:25;10.55;;;3.17;;
36001;SDS011;22070;50.922;5.430;2023-03-20T16:07:52;10.38;;;2.97;;
36001;SDS011;22070;50.922;5.430;2023-03-20T16:10:20;10.90;;;2.90;;
36001;SDS011;22070;50.922;5.430;2023-03-20T16:12:53;10.38;;;3.25;;
36001;SDS011;22070;50.922;5.430;2023-03-20T16:15:20;10.75;;;2.67;;
36001;SDS011;22070;50.922;5.430;2023-03-20T16:17:50;13.02;;;3.58;;
36001;SDS011;22070;50.922;5.430;2023-03-20T16:20:18;12.77;;;3.42;;
36001;SDS011;22070;50.922;5.430;2023-03-20T16:22:45;7.30;;;2.67;;
36001;SDS011;22070;50.922;5.430;2023-03-20T16:25:13;13.77;;;3.20;;
36001;SDS011;22070;50.922;5.430;2023-03-20T16:27:41;15.18;;;3.70;;
36001;SDS011;22070;50.922;5.430;2023-03-20T16:30:16;12.00;;;3.13;;
36001;SDS011;22070;50.922;5.430;2023-03-20T16:32:46;9.27;;;2.90;;
36001;SDS011;22070;50.922;5.430;2023-03-20T16:35:19;8.77;;;3.30;;
36001;SDS011;22070;50.922;5.430;2023-03-20T16:37:56;12.45;;;3.50;;
36001;SDS011;22070;50.922;5.430;2023-03-20T16:40:31;10.05;;;3.38;;
36001;SDS011;22070;50.922;5.430;2023-03-20T16:43:31;11.30;;;3.03;;
36001;SDS011;22070;50.922;5.430;2023-03-20T16:45:56;12.82;;;3.67;;
36001;SDS011;22070;50.922;5.430;2023-03-20T16:48:31;12.18;;;3.40;;
36001;SDS011;22070;50.922;5.430;2023-03-20T16:53:27;14.77;;;3.90;;
36001;SDS011;22070;50.922;5.430;2023-03-20T16:55:56;8.65;;;3.90;;
36001;SDS011;22070;50.922;5.430;2023-03-20T16:58:25;14.43;;;3.33;;
36001;SDS011;22070;50.922;5.430;2023-03-20T17:00:57;10.68;;;3.35;;
36001;SDS011;22070;50.922;5.430;2023-03-20T17:06:23;18.45;;;4.03;;
36001;SDS011;22070;50.922;5.430;2023-03-20T17:09:00;11.68;;;3.60;;
36001;SDS011;22070;50.922;5.430;2023-03-20T17:11:48;12.15;;;3.55;;
36001;SDS011;22070;50.922;5.430;2023-03-20T17:14:27;10.95;;;3.25;;
36001;SDS011;22070;50.922;5.430;2023-03-20T17:16:53;11.17;;;3.80;;
36001;SDS011;22070;50.922;5.430;2023-03-20T17:19:21;14.85;;;3.67;;
36001;SDS011;22070;50.922;5.430;2023-03-20T17:21:47;9.88;;;4.20;;
36001;SDS011;22070;50.922;5.430;2023-03-20T17:24:13;7.75;;;2.72;;
36001;SDS011;22070;50.922;5.430;2023-03-20T17:26:40;9.70;;;3.75;;
36001;SDS011;22070;50.922;5.430;2023-03-20T17:29:11;13.13;;;3.70;;
36001;SDS011;22070;50.922;5.430;2023-03-20T17:31:38;11.68;;;3.45;;
36001;SDS011;22070;50.922;5.430;2023-03-20T17:34:03;21.80;;;4.07;;
36001;SDS011;22070;50.922;5.430;2023-03-20T17:36:30;14.05;;;3.85;;
36001;SDS011;22070;50.922;5.430;2023-03-20T17:38:58;15.25;;;4.60;;
36001;SDS011;22070;50.922;5.430;2023-03-20T17:41:24;19.00;;;7.18;;
36001;SDS011;22070;50.922;5.430;2023-03-20T17:43:51;22.83;;;6.60;;
36001;SDS011;22070;50.922;5.430;2023-03-20T17:46:21;17.17;;;5.20;;
36001;SDS011;22070;50.922;5.430;2023-03-20T17:48:50;19.52;;;4.85;;
36001;SDS011;22070;50.922;5.430;2023-03-20T17:51:21;14.80;;;3.90;;
36001;SDS011;22070;50.922;5.430;2023-03-20T17:53:47;9.75;;;4.15;;
36001;SDS011;22070;50.922;5.430;2023-03-20T17:56:17;17.38;;;4.20;;
36001;SDS011;22070;50.922;5.430;2023-03-20T17:58:43;19.80;;;4.30;;
36001;SDS011;22070;50.922;5.430;2023-03-20T18:01:09;9.07;;;3.25;;
36001;SDS011;22070;50.922;5.430;2023-03-20T18:03:36;15.45;;;4.43;;